sensor_id;sensor_type;location;lat;lon;timestamp;pressure;altitude;pressure_sealevel;temperature;humidity
7906;BME280;13291;40.472;-3.878;2022-10-31T00:00:07;53318.06;;;-139.96;55.56
7906;BME280;13291;40.472;-3.878;2022-10-31T00:02:34;53320.06;;;-139.96;55.39
7906;BME280;13291;40.472;-3.878;2022-10-31T00:05:01;53312.06;;;-139.96;55.51
7906;BME280;13291;40.472;-3.878;2022-10-31T00:07:29;53266.03;;;-139.96;55.38
7906;BME280;13291;40.472;-3.878;2022-10-31T00:09:56;53294.06;;;-139.96;55.17
7906;BME280;13291;40.472;-3.878;2022-10-31T00:12:23;53276.03;;;-139.96;55.55
7906;BME280;13291;40.472;-3.878;2022-10-31T00:14:50;53282.06;;;-139.96;55.19
7906;BME280;13291;40.472;-3.878;2022-10-31T00:17:17;53294.06;;;-139.96;55.14
7906;BME280;13291;40.472;-3.878;2022-10-31T00:19:44;53278.06;;;-139.96;55.35
7906;BME280;13291;40.472;-3.878;2022-10-31T00:22:11;53276.03;;;-139.96;55.37
7906;BME280;13291;40.472;-3.878;2022-10-31T00:24:39;53300.06;;;-139.96;55.21
7906;BME280;13291;40.472;-3.878;2022-10-31T00:27:06;53284.06;;;-139.96;55.37
7906;BME280;13291;40.472;-3.878;2022-10-31T00:29:32;53308.06;;;-139.96;55.13
7906;BME280;13291;40.472;-3.878;2022-10-31T00:31:59;53306.06;;;-139.96;55.61
7906;BME280;13291;40.472;-3.878;2022-10-31T00:34:26;53298.06;;;-139.96;55.54
7906;BME280;13291;40.472;-3.878;2022-10-31T00:36:53;53282.06;;;-139.96;55.56
7906;BME280;13291;40.472;-3.878;2022-10-31T00:39:20;53298.06;;;-139.96;55.90
7906;BME280;13291;40.472;-3.878;2022-10-31T00:41:48;53290.06;;;-139.96;55.86
7906;BME280;13291;40.472;-3.878;2022-10-31T00:44:15;53280.06;;;-139.96;56.03
7906;BME280;13291;40.472;-3.878;2022-10-31T00:46:41;53286.06;;;-139.96;55.63
7906;BME280;13291;40.472;-3.878;2022-10-31T00:49:08;53288.06;;;-139.96;56.30
7906;BME280;13291;40.472;-3.878;2022-10-31T00:51:35;53280.06;;;-139.96;56.15
7906;BME280;13291;40.472;-3.878;2022-10-31T00:54:02;53302.06;;;-139.96;56.27
7906;BME280;13291;40.472;-3.878;2022-10-31T00:56:29;53338.06;;;-139.96;56.25
7906;BME280;13291;40.472;-3.878;2022-10-31T00:58:57;53326.06;;;-139.96;56.40
7906;BME280;13291;40.472;-3.878;2022-10-31T01:01:24;53304.06;;;-139.96;56.35
7906;BME280;13291;40.472;-3.878;2022-10-31T01:03:51;53290.06;;;-139.96;56.43
7906;BME280;13291;40.472;-3.878;2022-10-31T01:06:18;53282.06;;;-139.96;56.41
7906;BME280;13291;40.472;-3.878;2022-10-31T01:08:46;53300.06;;;-139.96;55.98
7906;BME280;13291;40.472;-3.878;2022-10-31T01:11:17;53328.06;;;-139.96;56.22
7906;BME280;13291;40.472;-3.878;2022-10-31T01:13:45;53342.06;;;-139.96;56.34
7906;BME280;13291;40.472;-3.878;2022-10-31T01:16:16;53302.06;;;-139.96;56.20
7906;BME280;13291;40.472;-3.878;2022-10-31T01:18:43;53306.06;;;-139.96;56.32
7906;BME280;13291;40.472;-3.878;2022-10-31T01:21:12;53300.06;;;-139.96;56.30
7906;BME280;13291;40.472;-3.878;2022-10-31T01:23:39;53310.06;;;-139.96;56.39
7906;BME280;13291;40.472;-3.878;2022-10-31T01:26:09;53308.06;;;-139.96;55.75
7906;BME280;13291;40.472;-3.878;2022-10-31T01:28:37;53292.06;;;-139.96;56.15
7906;BME280;13291;40.472;-3.878;2022-10-31T01:31:06;53290.06;;;-139.96;56.38
7906;BME280;13291;40.472;-3.878;2022-10-31T01:33:36;53302.06;;;-139.96;56.20
7906;BME280;13291;40.472;-3.878;2022-10-31T01:36:12;53332.06;;;-139.96;55.79
7906;BME280;13291;40.472;-3.878;2022-10-31T01:38:39;53320.06;;;-139.96;55.76
7906;BME280;13291;40.472;-3.878;2022-10-31T01:41:07;53298.06;;;-139.96;55.76
7906;BME280;13291;40.472;-3.878;2022-10-31T01:43:46;53320.06;;;-139.96;55.84
7906;BME280;13291;40.472;-3.878;2022-10-31T01:46:14;53298.06;;;-139.96;55.84
7906;BME280;13291;40.472;-3.878;2022-10-31T01:48:44;53324.06;;;-139.96;55.61
7906;BME280;13291;40.472;-3.878;2022-10-31T01:51:13;53300.06;;;-139.96;55.79
7906;BME280;13291;40.472;-3.878;2022-10-31T01:53:42;53306.06;;;-139.96;55.94
7906;BME280;13291;40.472;-3.878;2022-10-31T01:56:11;53330.06;;;-139.96;56.26
7906;BME280;13291;40.472;-3.878;2022-10-31T01:58:39;53274.03;;;-139.96;55.77
7906;BME280;13291;40.472;-3.878;2022-10-31T02:01:07;53300.06;;;-139.96;56.00
7906;BME280;13291;40.472;-3.878;2022-10-31T02:03:33;53296.06;;;-139.96;55.67
7906;BME280;13291;40.472;-3.878;2022-10-31T02:06:03;53300.06;;;-139.96;55.48
7906;BME280;13291;40.472;-3.878;2022-10-31T02:08:35;53292.06;;;-139.96;55.40
7906;BME280;13291;40.472;-3.878;2022-10-31T02:11:04;53282.06;;;-139.96;55.30
7906;BME280;13291;40.472;-3.878;2022-10-31T02:13:34;53276.03;;;-139.96;55.79
7906;BME280;13291;40.472;-3.878;2022-10-31T02:16:01;53302.06;;;-139.96;55.49
7906;BME280;13291;40.472;-3.878;2022-10-31T02:18:29;53294.06;;;-139.96;55.35
7906;BME280;13291;40.472;-3.878;2022-10-31T02:21:07;53274.03;;;-139.96;55.37
7906;BME280;13291;40.472;-3.878;2022-10-31T02:27:07;53326.06;;;-139.96;55.82
7906;BME280;13291;40.472;-3.878;2022-10-31T02:32:38;53292.06;;;-139.96;55.26
7906;BME280;13291;40.472;-3.878;2022-10-31T02:35:13;53310.06;;;-139.96;55.04
7906;BME280;13291;40.472;-3.878;2022-10-31T02:37:47;53314.06;;;-139.96;55.21
7906;BME280;13291;40.472;-3.878;2022-10-31T02:40:21;53290.06;;;-139.96;54.70
7906;BME280;13291;40.472;-3.878;2022-10-31T02:42:52;53304.06;;;-139.96;55.05
7906;BME280;13291;40.472;-3.878;2022-10-31T02:45:28;53292.06;;;-139.96;55.23
7906;BME280;13291;40.472;-3.878;2022-10-31T02:48:02;53294.06;;;-139.96;55.28
7906;BME280;13291;40.472;-3.878;2022-10-31T02:50:32;53310.06;;;-139.96;55.23
7906;BME280;13291;40.472;-3.878;2022-10-31T02:53:01;53306.06;;;-139.96;55.25
7906;BME280;13291;40.472;-3.878;2022-10-31T02:55:56;53326.06;;;-139.96;55.14
7906;BME280;13291;40.472;-3.878;2022-10-31T02:58:26;53304.06;;;-139.96;55.00
7906;BME280;13291;40.472;-3.878;2022-10-31T03:01:17;53294.06;;;-139.96;54.92
7906;BME280;13291;40.472;-3.878;2022-10-31T03:07:07;53296.06;;;-139.96;54.98
7906;BME280;13291;40.472;-3.878;2022-10-31T03:09:41;53330.06;;;-139.96;54.97
7906;BME280;13291;40.472;-3.878;2022-10-31T03:12:14;53336.06;;;-139.96;55.25
7906;BME280;13291;40.472;-3.878;2022-10-31T03:14:48;53294.06;;;-139.96;55.09
7906;BME280;13291;40.472;-3.878;2022-10-31T03:17:22;53274.03;;;-139.96;55.40
7906;BME280;13291;40.472;-3.878;2022-10-31T03:19:54;53304.06;;;-139.96;55.82
7906;BME280;13291;40.472;-3.878;2022-10-31T03:22:25;53274.03;;;-139.96;55.61
7906;BME280;13291;40.472;-3.878;2022-10-31T03:24:55;53316.06;;;-139.96;55.79
7906;BME280;13291;40.472;-3.878;2022-10-31T03:27:24;53320.06;;;-139.96;55.80
7906;BME280;13291;40.472;-3.878;2022-10-31T03:29:54;53298.06;;;-139.96;55.80
7906;BME280;13291;40.472;-3.878;2022-10-31T03:32:26;53294.06;;;-139.96;56.24
7906;BME280;13291;40.472;-3.878;2022-10-31T03:34:57;53322.06;;;-139.96;56.27
7906;BME280;13291;40.472;-3.878;2022-10-31T03:37:27;53332.06;;;-139.96;56.07
7906;BME280;13291;40.472;-3.878;2022-10-31T03:39:58;53332.06;;;-139.96;56.24
7906;BME280;13291;40.472;-3.878;2022-10-31T03:42:29;53330.06;;;-139.96;56.06
7906;BME280;13291;40.472;-3.878;2022-10-31T03:45:02;53336.06;;;-139.96;56.41
7906;BME280;13291;40.472;-3.878;2022-10-31T03:47:30;53328.06;;;-139.96;56.40
7906;BME280;13291;40.472;-3.878;2022-10-31T03:49:58;53290.06;;;-139.96;56.33
7906;BME280;13291;40.472;-3.878;2022-10-31T03:52:29;53350.06;;;-139.96;56.00
7906;BME280;13291;40.472;-3.878;2022-10-31T03:55:05;53314.06;;;-139.96;56.42
7906;BME280;13291;40.472;-3.878;2022-10-31T03:57:37;53324.06;;;-139.96;56.49
7906;BME280;13291;40.472;-3.878;2022-10-31T04:00:07;53326.06;;;-139.96;56.34
7906;BME280;13291;40.472;-3.878;2022-10-31T04:02:38;53326.06;;;-139.96;56.40
7906;BME280;13291;40.472;-3.878;2022-10-31T04:05:07;53298.06;;;-139.96;56.45
7906;BME280;13291;40.472;-3.878;2022-10-31T04:07:41;53338.06;;;-139.96;56.54
7906;BME280;13291;40.472;-3.878;2022-10-31T04:10:11;53314.06;;;-139.96;56.60
7906;BME280;13291;40.472;-3.878;2022-10-31T04:12:40;53302.06;;;-139.96;56.67
7906;BME280;13291;40.472;-3.878;2022-10-31T04:15:09;53324.06;;;-139.96;56.58
7906;BME280;13291;40.472;-3.878;2022-10-31T04:17:39;53318.06;;;-139.96;56.52
7906;BME280;13291;40.472;-3.878;2022-10-31T04:20:08;53306.06;;;-139.96;56.50
7906;BME280;13291;40.472;-3.878;2022-10-31T04:22:36;53270.03;;;-139.96;56.62
7906;BME280;13291;40.472;-3.878;2022-10-31T04:25:04;53316.06;;;-139.96;56.57
7906;BME280;13291;40.472;-3.878;2022-10-31T04:27:31;53298.06;;;-139.96;56.63
7906;BME280;13291;40.472;-3.878;2022-10-31T04:29:58;53332.06;;;-139.96;56.63
7906;BME280;13291;40.472;-3.878;2022-10-31T04:32:24;53326.06;;;-139.96;56.43
7906;BME280;13291;40.472;-3.878;2022-10-31T04:34:51;53346.06;;;-139.96;56.77
7906;BME280;13291;40.472;-3.878;2022-10-31T04:37:18;53292.06;;;-139.96;56.58
7906;BME280;13291;40.472;-3.878;2022-10-31T04:39:46;53336.06;;;-139.96;56.69
7906;BME280;13291;40.472;-3.878;2022-10-31T04:42:13;53288.06;;;-139.96;56.71
7906;BME280;13291;40.472;-3.878;2022-10-31T04:44:40;53326.06;;;-139.96;56.81
7906;BME280;13291;40.472;-3.878;2022-10-31T04:47:06;53338.06;;;-139.96;56.72
7906;BME280;13291;40.472;-3.878;2022-10-31T04:49:33;53346.06;;;-139.96;56.43
7906;BME280;13291;40.472;-3.878;2022-10-31T04:52:00;53334.06;;;-139.96;56.66
7906;BME280;13291;40.472;-3.878;2022-10-31T04:54:27;53336.06;;;-139.96;56.55
7906;BME280;13291;40.472;-3.878;2022-10-31T04:56:55;53298.06;;;-139.96;56.52
7906;BME280;13291;40.472;-3.878;2022-10-31T04:59:22;53314.06;;;-139.96;56.61
7906;BME280;13291;40.472;-3.878;2022-10-31T05:01:49;53310.06;;;-139.96;56.59
7906;BME280;13291;40.472;-3.878;2022-10-31T05:04:15;53296.06;;;-139.96;56.83
7906;BME280;13291;40.472;-3.878;2022-10-31T05:06:42;53298.06;;;-139.96;56.85
7906;BME280;13291;40.472;-3.878;2022-10-31T05:09:09;53332.06;;;-139.96;57.31
7906;BME280;13291;40.472;-3.878;2022-10-31T05:11:36;53304.06;;;-139.96;57.11
7906;BME280;13291;40.472;-3.878;2022-10-31T05:14:04;53310.06;;;-139.96;56.87
7906;BME280;13291;40.472;-3.878;2022-10-31T05:16:31;53334.06;;;-139.96;57.03
7906;BME280;13291;40.472;-3.878;2022-10-31T05:18:58;53304.06;;;-139.96;57.03
7906;BME280;13291;40.472;-3.878;2022-10-31T05:21:25;53350.06;;;-139.96;56.80
7906;BME280;13291;40.472;-3.878;2022-10-31T05:23:52;53342.06;;;-139.96;56.69
7906;BME280;13291;40.472;-3.878;2022-10-31T05:26:18;53322.06;;;-139.96;56.86
7906;BME280;13291;40.472;-3.878;2022-10-31T05:28:45;53326.06;;;-139.96;56.75
7906;BME280;13291;40.472;-3.878;2022-10-31T05:31:13;53316.06;;;-139.96;56.50
7906;BME280;13291;40.472;-3.878;2022-10-31T05:33:40;53326.06;;;-139.96;56.64
7906;BME280;13291;40.472;-3.878;2022-10-31T05:36:07;53320.06;;;-139.96;56.62
7906;BME280;13291;40.472;-3.878;2022-10-31T05:38:34;53334.06;;;-139.96;56.85
7906;BME280;13291;40.472;-3.878;2022-10-31T05:41:01;53330.06;;;-139.96;56.58
7906;BME280;13291;40.472;-3.878;2022-10-31T05:43:28;53332.06;;;-139.96;56.59
7906;BME280;13291;40.472;-3.878;2022-10-31T05:45:56;53356.06;;;-139.96;56.77
7906;BME280;13291;40.472;-3.878;2022-10-31T05:48:24;53304.06;;;-139.96;56.70
7906;BME280;13291;40.472;-3.878;2022-10-31T05:50:51;53296.06;;;-139.96;56.52
7906;BME280;13291;40.472;-3.878;2022-10-31T05:53:18;53336.06;;;-139.96;56.47
7906;BME280;13291;40.472;-3.878;2022-10-31T05:55:45;53338.06;;;-139.96;56.71
7906;BME280;13291;40.472;-3.878;2022-10-31T05:58:12;53318.06;;;-139.96;56.57
7906;BME280;13291;40.472;-3.878;2022-10-31T06:00:39;53314.06;;;-139.96;56.64
7906;BME280;13291;40.472;-3.878;2022-10-31T06:03:07;53316.06;;;-139.96;56.80
7906;BME280;13291;40.472;-3.878;2022-10-31T06:05:35;53296.06;;;-139.96;56.94
7906;BME280;13291;40.472;-3.878;2022-10-31T06:08:02;53322.06;;;-139.96;57.04
7906;BME280;13291;40.472;-3.878;2022-10-31T06:10:29;53290.06;;;-139.96;56.90
7906;BME280;13291;40.472;-3.878;2022-10-31T06:12:56;53320.06;;;-139.96;57.20
7906;BME280;13291;40.472;-3.878;2022-10-31T06:15:23;53332.06;;;-139.96;57.20
7906;BME280;13291;40.472;-3.878;2022-10-31T06:18:00;53322.06;;;-139.96;57.16
7906;BME280;13291;40.472;-3.878;2022-10-31T06:20:27;53306.06;;;-139.96;57.23
7906;BME280;13291;40.472;-3.878;2022-10-31T06:22:56;53318.06;;;-139.96;57.22
7906;BME280;13291;40.472;-3.878;2022-10-31T06:25:23;53334.06;;;-139.96;56.81
7906;BME280;13291;40.472;-3.878;2022-10-31T06:27:50;53296.06;;;-139.96;56.72
7906;BME280;13291;40.472;-3.878;2022-10-31T06:30:17;53296.06;;;-139.96;57.11
7906;BME280;13291;40.472;-3.878;2022-10-31T06:32:44;53298.06;;;-139.96;56.92
7906;BME280;13291;40.472;-3.878;2022-10-31T06:35:10;53336.06;;;-139.96;57.32
7906;BME280;13291;40.472;-3.878;2022-10-31T06:37:38;53336.06;;;-139.96;57.13
7906;BME280;13291;40.472;-3.878;2022-10-31T06:40:07;53348.06;;;-139.96;57.34
7906;BME280;13291;40.472;-3.878;2022-10-31T06:42:34;53354.06;;;-139.96;57.29
7906;BME280;13291;40.472;-3.878;2022-10-31T06:45:01;53302.06;;;-139.96;57.14
7906;BME280;13291;40.472;-3.878;2022-10-31T06:47:28;53370.06;;;-139.96;57.05
7906;BME280;13291;40.472;-3.878;2022-10-31T06:49:55;53300.06;;;-139.96;57.33
7906;BME280;13291;40.472;-3.878;2022-10-31T06:52:21;53324.06;;;-139.96;57.53
7906;BME280;13291;40.472;-3.878;2022-10-31T06:54:49;53342.06;;;-139.96;57.35
7906;BME280;13291;40.472;-3.878;2022-10-31T06:57:17;53322.06;;;-139.96;57.65
7906;BME280;13291;40.472;-3.878;2022-10-31T06:59:44;53306.06;;;-139.96;57.54
7906;BME280;13291;40.472;-3.878;2022-10-31T07:02:11;53294.06;;;-139.96;57.16
7906;BME280;13291;40.472;-3.878;2022-10-31T07:04:38;53320.06;;;-139.96;57.18
7906;BME280;13291;40.472;-3.878;2022-10-31T07:07:05;53290.06;;;-139.96;57.44
7906;BME280;13291;40.472;-3.878;2022-10-31T07:09:32;53336.06;;;-139.96;57.25
7906;BME280;13291;40.472;-3.878;2022-10-31T07:11:58;53312.06;;;-139.96;57.22
7906;BME280;13291;40.472;-3.878;2022-10-31T07:14:27;53318.06;;;-139.96;56.96
7906;BME280;13291;40.472;-3.878;2022-10-31T07:16:53;53356.06;;;-139.96;56.98
7906;BME280;13291;40.472;-3.878;2022-10-31T07:19:20;53326.06;;;-139.96;56.97
7906;BME280;13291;40.472;-3.878;2022-10-31T07:21:47;53352.06;;;-139.96;57.11
7906;BME280;13291;40.472;-3.878;2022-10-31T07:24:14;53322.06;;;-139.96;57.33
7906;BME280;13291;40.472;-3.878;2022-10-31T07:26:41;53332.06;;;-139.96;57.11
7906;BME280;13291;40.472;-3.878;2022-10-31T07:29:08;53320.06;;;-139.96;57.42
7906;BME280;13291;40.472;-3.878;2022-10-31T07:31:36;53332.06;;;-139.96;57.56
7906;BME280;13291;40.472;-3.878;2022-10-31T07:34:03;53326.06;;;-139.96;57.39
7906;BME280;13291;40.472;-3.878;2022-10-31T07:36:30;53310.06;;;-139.96;57.09
7906;BME280;13291;40.472;-3.878;2022-10-31T07:38:56;53330.06;;;-139.96;57.24
7906;BME280;13291;40.472;-3.878;2022-10-31T07:41:25;53358.06;;;-139.96;57.41
7906;BME280;13291;40.472;-3.878;2022-10-31T07:43:52;53348.06;;;-139.96;57.23
7906;BME280;13291;40.472;-3.878;2022-10-31T07:46:18;53344.06;;;-139.96;57.31
7906;BME280;13291;40.472;-3.878;2022-10-31T07:48:47;53326.06;;;-139.96;57.53
7906;BME280;13291;40.472;-3.878;2022-10-31T07:51:14;53348.06;;;-139.96;57.41
7906;BME280;13291;40.472;-3.878;2022-10-31T07:53:40;53320.06;;;-139.96;57.51
7906;BME280;13291;40.472;-3.878;2022-10-31T07:56:07;53338.06;;;-139.96;57.51
7906;BME280;13291;40.472;-3.878;2022-10-31T07:58:34;53340.06;;;-139.96;57.44
7906;BME280;13291;40.472;-3.878;2022-10-31T08:01:01;53328.06;;;-139.96;57.10
7906;BME280;13291;40.472;-3.878;2022-10-31T08:03:28;53314.06;;;-139.96;57.52
7906;BME280;13291;40.472;-3.878;2022-10-31T08:05:56;53358.06;;;-139.96;57.39
7906;BME280;13291;40.472;-3.878;2022-10-31T08:08:23;53298.06;;;-139.96;57.42
7906;BME280;13291;40.472;-3.878;2022-10-31T08:10:53;53316.06;;;-139.96;57.36
7906;BME280;13291;40.472;-3.878;2022-10-31T08:13:20;53346.06;;;-139.96;57.42
7906;BME280;13291;40.472;-3.878;2022-10-31T08:15:47;53328.06;;;-139.96;57.81
7906;BME280;13291;40.472;-3.878;2022-10-31T08:18:15;53310.06;;;-139.96;57.61
7906;BME280;13291;40.472;-3.878;2022-10-31T08:20:43;53336.06;;;-139.96;57.86
7906;BME280;13291;40.472;-3.878;2022-10-31T08:23:12;53308.06;;;-139.96;57.85
7906;BME280;13291;40.472;-3.878;2022-10-31T08:25:39;53326.06;;;-139.96;57.91
7906;BME280;13291;40.472;-3.878;2022-10-31T08:28:08;53314.06;;;-139.96;57.88
7906;BME280;13291;40.472;-3.878;2022-10-31T08:30:37;53326.06;;;-139.96;57.80
7906;BME280;13291;40.472;-3.878;2022-10-31T08:33:06;53318.06;;;-139.96;57.83
7906;BME280;13291;40.472;-3.878;2022-10-31T08:35:34;53294.06;;;-139.96;57.76
7906;BME280;13291;40.472;-3.878;2022-10-31T08:38:02;53298.06;;;-139.96;58.09
7906;BME280;13291;40.472;-3.878;2022-10-31T08:40:31;53306.06;;;-139.96;57.60
7906;BME280;13291;40.472;-3.878;2022-10-31T08:42:59;53318.06;;;-139.96;57.92
7906;BME280;13291;40.472;-3.878;2022-10-31T08:45:27;53284.06;;;-139.96;58.19
7906;BME280;13291;40.472;-3.878;2022-10-31T08:47:57;53298.06;;;-139.96;58.45
7906;BME280;13291;40.472;-3.878;2022-10-31T08:50:24;53322.06;;;-139.96;58.48
7906;BME280;13291;40.472;-3.878;2022-10-31T08:52:51;53306.06;;;-139.96;58.09
7906;BME280;13291;40.472;-3.878;2022-10-31T08:55:18;53310.06;;;-139.96;58.38
7906;BME280;13291;40.472;-3.878;2022-10-31T08:57:46;53326.06;;;-139.96;58.12
7906;BME280;13291;40.472;-3.878;2022-10-31T09:00:13;53310.06;;;-139.96;58.10
7906;BME280;13291;40.472;-3.878;2022-10-31T09:02:40;53296.06;;;-139.96;58.40
7906;BME280;13291;40.472;-3.878;2022-10-31T09:05:07;53292.06;;;-139.96;58.38
7906;BME280;13291;40.472;-3.878;2022-10-31T09:07:34;53272.03;;;-139.96;58.53
7906;BME280;13291;40.472;-3.878;2022-10-31T09:10:01;53314.06;;;-139.96;58.52
7906;BME280;13291;40.472;-3.878;2022-10-31T09:12:28;53286.06;;;-139.96;58.45
7906;BME280;13291;40.472;-3.878;2022-10-31T09:14:56;53324.06;;;-139.96;58.75
7906;BME280;13291;40.472;-3.878;2022-10-31T09:17:23;53292.06;;;-139.96;58.68
7906;BME280;13291;40.472;-3.878;2022-10-31T09:19:52;53330.06;;;-139.96;58.36
7906;BME280;13291;40.472;-3.878;2022-10-31T09:22:18;53306.06;;;-139.96;58.65
7906;BME280;13291;40.472;-3.878;2022-10-31T09:24:45;53276.03;;;-139.96;58.38
7906;BME280;13291;40.472;-3.878;2022-10-31T09:27:12;53282.06;;;-139.96;58.72
7906;BME280;13291;40.472;-3.878;2022-10-31T09:29:39;53314.06;;;-139.96;58.42
7906;BME280;13291;40.472;-3.878;2022-10-31T09:32:08;53322.06;;;-139.96;58.82
7906;BME280;13291;40.472;-3.878;2022-10-31T09:34:34;53270.03;;;-139.96;59.13
7906;BME280;13291;40.472;-3.878;2022-10-31T09:37:01;53306.06;;;-139.96;59.05
7906;BME280;13291;40.472;-3.878;2022-10-31T09:39:28;53332.06;;;-139.96;58.85
7906;BME280;13291;40.472;-3.878;2022-10-31T09:42:26;53322.06;;;-139.96;58.86
7906;BME280;13291;40.472;-3.878;2022-10-31T09:45:03;53314.06;;;-139.96;58.61
7906;BME280;13291;40.472;-3.878;2022-10-31T09:47:43;53294.06;;;-139.96;58.54
7906;BME280;13291;40.472;-3.878;2022-10-31T09:50:20;53300.06;;;-139.96;58.60
7906;BME280;13291;40.472;-3.878;2022-10-31T09:52:54;53292.06;;;-139.96;58.51
7906;BME280;13291;40.472;-3.878;2022-10-31T09:55:30;53306.06;;;-139.96;58.68
7906;BME280;13291;40.472;-3.878;2022-10-31T09:57:59;53334.06;;;-139.96;58.91
7906;BME280;13291;40.472;-3.878;2022-10-31T10:00:26;53278.06;;;-139.96;58.72
7906;BME280;13291;40.472;-3.878;2022-10-31T10:02:59;53314.06;;;-139.96;58.57
7906;BME280;13291;40.472;-3.878;2022-10-31T10:05:34;53296.06;;;-139.96;58.79
7906;BME280;13291;40.472;-3.878;2022-10-31T10:08:09;53290.06;;;-139.96;58.70
7906;BME280;13291;40.472;-3.878;2022-10-31T10:10:45;53310.06;;;-139.96;59.24
7906;BME280;13291;40.472;-3.878;2022-10-31T10:13:29;53320.06;;;-139.96;59.20
7906;BME280;13291;40.472;-3.878;2022-10-31T10:16:07;53276.03;;;-139.96;58.50
7906;BME280;13291;40.472;-3.878;2022-10-31T10:18:49;53282.06;;;-139.96;57.99
7906;BME280;13291;40.472;-3.878;2022-10-31T10:21:31;53304.06;;;-139.96;58.40
7906;BME280;13291;40.472;-3.878;2022-10-31T10:24:17;53282.06;;;-139.96;58.12
7906;BME280;13291;40.472;-3.878;2022-10-31T10:26:50;53288.06;;;-139.96;58.22
7906;BME280;13291;40.472;-3.878;2022-10-31T10:29:31;53298.06;;;-139.96;58.10
7906;BME280;13291;40.472;-3.878;2022-10-31T10:32:03;53302.06;;;-139.96;59.18
7906;BME280;13291;40.472;-3.878;2022-10-31T10:34:36;53308.06;;;-139.96;60.08
7906;BME280;13291;40.472;-3.878;2022-10-31T10:37:12;53282.06;;;-139.96;59.29
7906;BME280;13291;40.472;-3.878;2022-10-31T10:39:44;53256.03;;;-139.96;59.00
7906;BME280;13291;40.472;-3.878;2022-10-31T10:42:14;53298.06;;;-139.96;57.83
7906;BME280;13291;40.472;-3.878;2022-10-31T10:44:59;53306.06;;;-139.96;57.46
7906;BME280;13291;40.472;-3.878;2022-10-31T10:47:48;53282.06;;;-139.96;56.95
7906;BME280;13291;40.472;-3.878;2022-10-31T10:50:23;53288.06;;;-139.96;57.48
7906;BME280;13291;40.472;-3.878;2022-10-31T10:52:59;53304.06;;;-139.96;57.11
7906;BME280;13291;40.472;-3.878;2022-10-31T10:55:34;53278.06;;;-139.96;57.45
7906;BME280;13291;40.472;-3.878;2022-10-31T10:58:06;53276.03;;;-139.96;58.49
7906;BME280;13291;40.472;-3.878;2022-10-31T11:00:35;53270.03;;;-139.96;58.39
7906;BME280;13291;40.472;-3.878;2022-10-31T11:03:03;53282.06;;;-139.96;57.47
7906;BME280;13291;40.472;-3.878;2022-10-31T11:05:36;53262.03;;;-139.96;57.60
7906;BME280;13291;40.472;-3.878;2022-10-31T11:08:06;53258.03;;;-139.96;57.88
7906;BME280;13291;40.472;-3.878;2022-10-31T11:10:33;53284.06;;;-139.96;57.31
7906;BME280;13291;40.472;-3.878;2022-10-31T11:13:05;53282.06;;;-139.96;57.44
7906;BME280;13291;40.472;-3.878;2022-10-31T11:15:38;53294.06;;;-139.96;57.44
7906;BME280;13291;40.472;-3.878;2022-10-31T11:18:18;53298.06;;;-139.96;57.81
7906;BME280;13291;40.472;-3.878;2022-10-31T11:20:52;53306.06;;;-139.96;58.35
7906;BME280;13291;40.472;-3.878;2022-10-31T11:23:21;53286.06;;;-139.96;57.98
7906;BME280;13291;40.472;-3.878;2022-10-31T11:25:50;53226.03;;;-139.96;57.70
7906;BME280;13291;40.472;-3.878;2022-10-31T11:28:17;53288.06;;;-139.96;57.04
7906;BME280;13291;40.472;-3.878;2022-10-31T11:30:46;53300.06;;;-139.96;56.88
7906;BME280;13291;40.472;-3.878;2022-10-31T11:33:18;53246.03;;;-139.96;56.71
7906;BME280;13291;40.472;-3.878;2022-10-31T11:35:47;53288.06;;;-139.96;56.85
7906;BME280;13291;40.472;-3.878;2022-10-31T11:38:19;53274.03;;;-139.96;56.80
7906;BME280;13291;40.472;-3.878;2022-10-31T11:40:57;53244.03;;;-139.96;57.16
7906;BME280;13291;40.472;-3.878;2022-10-31T11:43:25;53256.03;;;-139.96;57.20
7906;BME280;13291;40.472;-3.878;2022-10-31T11:45:53;53310.06;;;-139.96;57.28
7906;BME280;13291;40.472;-3.878;2022-10-31T11:48:21;53268.03;;;-139.96;57.63
7906;BME280;13291;40.472;-3.878;2022-10-31T11:50:50;53272.03;;;-139.96;57.39
7906;BME280;13291;40.472;-3.878;2022-10-31T11:53:24;53268.03;;;-139.96;57.61
7906;BME280;13291;40.472;-3.878;2022-10-31T11:56:01;53284.06;;;-139.96;57.62
7906;BME280;13291;40.472;-3.878;2022-10-31T11:58:29;53274.03;;;-139.96;57.55
7906;BME280;13291;40.472;-3.878;2022-10-31T12:00:57;53274.03;;;-139.96;57.81
7906;BME280;13291;40.472;-3.878;2022-10-31T12:03:40;53302.06;;;-139.96;57.96
